sensor_id;sensor_type;location;lat;lon;timestamp;P1;durP1;ratioP1;P2;durP2;ratioP2
67965;SDS011;54749;47.850;9.002;2022-07-12T00:00:15;4.65;;;2.35;;
67965;SDS011;54749;47.850;9.002;2022-07-12T00:03:01;5.75;;;2.50;;
67965;SDS011;54749;47.850;9.002;2022-07-12T00:05:28;6.73;;;3.50;;
67965;SDS011;54749;47.850;9.002;2022-07-12T00:07:55;5.20;;;2.85;;
67965;SDS011;54749;47.850;9.002;2022-07-12T00:10:21;6.55;;;3.63;;
67965;SDS011;54749;47.850;9.002;2022-07-12T00:12:48;5.93;;;3.20;;
67965;SDS011;54749;47.850;9.002;2022-07-12T00:15:16;5.45;;;2.50;;
67965;SDS011;54749;47.850;9.002;2022-07-12T00:17:42;4.83;;;2.50;;
67965;SDS011;54749;47.850;9.002;2022-07-12T00:20:09;5.10;;;2.40;;
67965;SDS011;54749;47.850;9.002;2022-07-12T00:22:36;4.55;;;2.15;;
67965;SDS011;54749;47.850;9.002;2022-07-12T00:25:03;6.85;;;3.80;;
67965;SDS011;54749;47.850;9.002;2022-07-12T00:27:31;7.45;;;3.70;;
67965;SDS011;54749;47.850;9.002;2022-07-12T00:29:57;6.33;;;3.33;;
67965;SDS011;54749;47.850;9.002;2022-07-12T00:32:24;8.40;;;3.72;;
67965;SDS011;54749;47.850;9.002;2022-07-12T00:34:51;5.82;;;3.03;;
67965;SDS011;54749;47.850;9.002;2022-07-12T00:37:18;5.53;;;2.50;;
67965;SDS011;54749;47.850;9.002;2022-07-12T00:39:45;5.30;;;2.78;;
67965;SDS011;54749;47.850;9.002;2022-07-12T00:42:11;6.00;;;2.90;;
67965;SDS011;54749;47.850;9.002;2022-07-12T00:44:38;5.13;;;2.55;;
67965;SDS011;54749;47.850;9.002;2022-07-12T00:47:05;5.10;;;2.40;;
67965;SDS011;54749;47.850;9.002;2022-07-12T00:49:32;4.70;;;2.47;;
67965;SDS011;54749;47.850;9.002;2022-07-12T00:51:59;4.53;;;2.40;;
67965;SDS011;54749;47.850;9.002;2022-07-12T00:54:26;4.40;;;2.07;;
67965;SDS011;54749;47.850;9.002;2022-07-12T00:56:53;4.82;;;2.47;;
67965;SDS011;54749;47.850;9.002;2022-07-12T00:59:20;5.53;;;2.72;;
67965;SDS011;54749;47.850;9.002;2022-07-12T01:01:47;5.03;;;2.53;;
67965;SDS011;54749;47.850;9.002;2022-07-12T01:04:14;5.63;;;3.00;;
67965;SDS011;54749;47.850;9.002;2022-07-12T01:06:45;8.43;;;2.83;;
67965;SDS011;54749;47.850;9.002;2022-07-12T01:09:11;5.38;;;2.80;;
67965;SDS011;54749;47.850;9.002;2022-07-12T01:11:39;5.13;;;2.60;;
67965;SDS011;54749;47.850;9.002;2022-07-12T01:14:06;5.85;;;2.72;;
67965;SDS011;54749;47.850;9.002;2022-07-12T01:16:33;6.53;;;3.03;;
67965;SDS011;54749;47.850;9.002;2022-07-12T01:19:00;6.77;;;3.20;;
67965;SDS011;54749;47.850;9.002;2022-07-12T01:21:29;6.05;;;3.33;;
67965;SDS011;54749;47.850;9.002;2022-07-12T01:23:58;5.97;;;3.00;;
67965;SDS011;54749;47.850;9.002;2022-07-12T01:26:27;5.50;;;3.20;;
67965;SDS011;54749;47.850;9.002;2022-07-12T01:28:54;7.05;;;3.20;;
67965;SDS011;54749;47.850;9.002;2022-07-12T01:31:22;6.03;;;3.30;;
67965;SDS011;54749;47.850;9.002;2022-07-12T01:33:49;7.05;;;3.20;;
67965;SDS011;54749;47.850;9.002;2022-07-12T01:36:17;6.43;;;3.00;;
67965;SDS011;54749;47.850;9.002;2022-07-12T01:38:44;5.50;;;2.90;;
67965;SDS011;54749;47.850;9.002;2022-07-12T01:41:11;6.18;;;3.10;;
67965;SDS011;54749;47.850;9.002;2022-07-12T01:43:38;6.57;;;3.33;;
67965;SDS011;54749;47.850;9.002;2022-07-12T01:46:04;6.05;;;3.00;;
67965;SDS011;54749;47.850;9.002;2022-07-12T01:48:32;6.18;;;3.15;;
67965;SDS011;54749;47.850;9.002;2022-07-12T01:50:59;5.70;;;2.95;;
67965;SDS011;54749;47.850;9.002;2022-07-12T01:53:26;5.70;;;2.92;;
67965;SDS011;54749;47.850;9.002;2022-07-12T01:55:53;6.10;;;3.10;;
67965;SDS011;54749;47.850;9.002;2022-07-12T01:58:20;5.82;;;2.92;;
67965;SDS011;54749;47.850;9.002;2022-07-12T02:00:47;6.68;;;2.75;;
67965;SDS011;54749;47.850;9.002;2022-07-12T02:03:18;7.30;;;3.25;;
67965;SDS011;54749;47.850;9.002;2022-07-12T02:05:45;6.80;;;3.50;;
67965;SDS011;54749;47.850;9.002;2022-07-12T02:08:12;6.53;;;3.07;;
67965;SDS011;54749;47.850;9.002;2022-07-12T02:10:40;5.93;;;3.20;;
67965;SDS011;54749;47.850;9.002;2022-07-12T02:13:07;7.90;;;3.70;;
67965;SDS011;54749;47.850;9.002;2022-07-12T02:15:35;6.07;;;3.40;;
67965;SDS011;54749;47.850;9.002;2022-07-12T02:18:02;5.88;;;3.13;;
67965;SDS011;54749;47.850;9.002;2022-07-12T02:20:29;5.93;;;2.60;;
67965;SDS011;54749;47.850;9.002;2022-07-12T02:22:56;8.32;;;2.97;;
67965;SDS011;54749;47.850;9.002;2022-07-12T02:25:22;7.05;;;3.80;;
67965;SDS011;54749;47.850;9.002;2022-07-12T02:27:49;5.97;;;3.00;;
67965;SDS011;54749;47.850;9.002;2022-07-12T02:30:16;5.88;;;3.10;;
67965;SDS011;54749;47.850;9.002;2022-07-12T02:32:43;7.00;;;3.53;;
67965;SDS011;54749;47.850;9.002;2022-07-12T02:35:10;5.93;;;3.30;;
67965;SDS011;54749;47.850;9.002;2022-07-12T02:37:37;6.32;;;3.25;;
67965;SDS011;54749;47.850;9.002;2022-07-12T02:40:04;6.35;;;3.58;;
67965;SDS011;54749;47.850;9.002;2022-07-12T02:42:50;6.50;;;3.78;;
67965;SDS011;54749;47.850;9.002;2022-07-12T02:45:17;6.93;;;3.77;;
67965;SDS011;54749;47.850;9.002;2022-07-12T02:47:44;9.35;;;3.95;;
67965;SDS011;54749;47.850;9.002;2022-07-12T02:50:11;7.57;;;3.45;;
67965;SDS011;54749;47.850;9.002;2022-07-12T02:52:37;7.93;;;3.13;;
67965;SDS011;54749;47.850;9.002;2022-07-12T02:55:04;6.45;;;3.45;;
67965;SDS011;54749;47.850;9.002;2022-07-12T02:57:31;8.70;;;3.90;;
67965;SDS011;54749;47.850;9.002;2022-07-12T02:59:58;6.20;;;3.28;;
67965;SDS011;54749;47.850;9.002;2022-07-12T03:02:25;7.35;;;3.55;;
67965;SDS011;54749;47.850;9.002;2022-07-12T03:04:52;6.30;;;3.42;;
67965;SDS011;54749;47.850;9.002;2022-07-12T03:07:19;10.85;;;3.45;;
67965;SDS011;54749;47.850;9.002;2022-07-12T03:09:46;6.20;;;3.47;;
67965;SDS011;54749;47.850;9.002;2022-07-12T03:12:13;6.90;;;3.70;;
67965;SDS011;54749;47.850;9.002;2022-07-12T03:14:39;8.68;;;3.83;;
67965;SDS011;54749;47.850;9.002;2022-07-12T03:17:06;7.15;;;3.50;;
67965;SDS011;54749;47.850;9.002;2022-07-12T03:19:33;8.27;;;3.75;;
67965;SDS011;54749;47.850;9.002;2022-07-12T03:22:00;6.30;;;3.77;;
67965;SDS011;54749;47.850;9.002;2022-07-12T03:24:27;6.00;;;3.28;;
67965;SDS011;54749;47.850;9.002;2022-07-12T03:26:53;8.75;;;3.45;;
67965;SDS011;54749;47.850;9.002;2022-07-12T03:29:20;7.13;;;3.63;;
67965;SDS011;54749;47.850;9.002;2022-07-12T03:31:47;6.53;;;3.35;;
67965;SDS011;54749;47.850;9.002;2022-07-12T03:34:14;6.03;;;3.20;;
67965;SDS011;54749;47.850;9.002;2022-07-12T03:36:41;6.82;;;3.53;;
67965;SDS011;54749;47.850;9.002;2022-07-12T03:39:07;7.80;;;3.80;;
67965;SDS011;54749;47.850;9.002;2022-07-12T03:41:34;7.40;;;3.63;;
67965;SDS011;54749;47.850;9.002;2022-07-12T03:44:01;7.10;;;3.88;;
67965;SDS011;54749;47.850;9.002;2022-07-12T03:46:28;6.47;;;3.00;;
67965;SDS011;54749;47.850;9.002;2022-07-12T03:48:55;8.13;;;3.95;;
67965;SDS011;54749;47.850;9.002;2022-07-12T03:51:22;6.93;;;3.67;;
67965;SDS011;54749;47.850;9.002;2022-07-12T03:53:49;7.53;;;3.60;;
67965;SDS011;54749;47.850;9.002;2022-07-12T03:56:15;8.00;;;3.92;;
67965;SDS011;54749;47.850;9.002;2022-07-12T03:59:03;7.10;;;3.63;;
67965;SDS011;54749;47.850;9.002;2022-07-12T04:01:30;6.55;;;3.50;;
67965;SDS011;54749;47.850;9.002;2022-07-12T04:03:58;7.60;;;3.88;;
67965;SDS011;54749;47.850;9.002;2022-07-12T04:06:25;6.75;;;3.30;;
67965;SDS011;54749;47.850;9.002;2022-07-12T04:08:52;7.05;;;3.50;;
67965;SDS011;54749;47.850;9.002;2022-07-12T04:11:19;7.63;;;3.70;;
67965;SDS011;54749;47.850;9.002;2022-07-12T04:13:46;7.45;;;3.58;;
67965;SDS011;54749;47.850;9.002;2022-07-12T04:16:13;8.60;;;4.40;;
67965;SDS011;54749;47.850;9.002;2022-07-12T04:18:39;6.75;;;3.40;;
67965;SDS011;54749;47.850;9.002;2022-07-12T04:21:06;7.80;;;3.92;;
67965;SDS011;54749;47.850;9.002;2022-07-12T04:23:33;7.80;;;3.30;;
67965;SDS011;54749;47.850;9.002;2022-07-12T04:26:00;6.47;;;3.40;;
67965;SDS011;54749;47.850;9.002;2022-07-12T04:28:27;6.80;;;3.30;;
67965;SDS011;54749;47.850;9.002;2022-07-12T04:30:54;6.13;;;3.22;;
67965;SDS011;54749;47.850;9.002;2022-07-12T04:33:21;8.70;;;3.33;;
67965;SDS011;54749;47.850;9.002;2022-07-12T04:35:48;7.57;;;3.47;;
67965;SDS011;54749;47.850;9.002;2022-07-12T04:38:15;9.40;;;3.95;;
67965;SDS011;54749;47.850;9.002;2022-07-12T04:40:41;7.65;;;3.58;;
67965;SDS011;54749;47.850;9.002;2022-07-12T04:43:08;8.18;;;3.45;;
67965;SDS011;54749;47.850;9.002;2022-07-12T04:45:35;7.68;;;3.70;;
67965;SDS011;54749;47.850;9.002;2022-07-12T04:48:02;7.30;;;3.93;;
67965;SDS011;54749;47.850;9.002;2022-07-12T04:50:29;7.80;;;3.78;;
67965;SDS011;54749;47.850;9.002;2022-07-12T04:52:56;6.80;;;3.40;;
67965;SDS011;54749;47.850;9.002;2022-07-12T04:55:23;16.20;;;4.22;;
67965;SDS011;54749;47.850;9.002;2022-07-12T04:57:49;8.05;;;3.67;;
67965;SDS011;54749;47.850;9.002;2022-07-12T05:00:16;7.30;;;3.67;;
67965;SDS011;54749;47.850;9.002;2022-07-12T05:02:43;5.93;;;3.53;;
67965;SDS011;54749;47.850;9.002;2022-07-12T05:05:10;9.13;;;3.65;;
67965;SDS011;54749;47.850;9.002;2022-07-12T05:07:37;5.88;;;3.10;;
67965;SDS011;54749;47.850;9.002;2022-07-12T05:10:10;6.63;;;3.22;;
67965;SDS011;54749;47.850;9.002;2022-07-12T05:12:37;8.13;;;3.10;;
67965;SDS011;54749;47.850;9.002;2022-07-12T05:15:05;7.70;;;2.80;;
67965;SDS011;54749;47.850;9.002;2022-07-12T05:17:35;12.70;;;3.17;;
67965;SDS011;54749;47.850;9.002;2022-07-12T05:20:02;5.90;;;2.80;;
67965;SDS011;54749;47.850;9.002;2022-07-12T05:22:30;6.22;;;3.50;;
67965;SDS011;54749;47.850;9.002;2022-07-12T05:24:57;9.30;;;3.63;;
67965;SDS011;54749;47.850;9.002;2022-07-12T05:27:24;5.30;;;3.05;;
67965;SDS011;54749;47.850;9.002;2022-07-12T05:29:51;7.85;;;3.50;;
67965;SDS011;54749;47.850;9.002;2022-07-12T05:32:18;9.55;;;3.30;;
67965;SDS011;54749;47.850;9.002;2022-07-12T05:34:45;5.80;;;3.08;;
67965;SDS011;54749;47.850;9.002;2022-07-12T05:37:11;6.17;;;3.00;;
67965;SDS011;54749;47.850;9.002;2022-07-12T05:39:38;5.97;;;3.13;;
67965;SDS011;54749;47.850;9.002;2022-07-12T05:42:10;5.28;;;2.72;;
67965;SDS011;54749;47.850;9.002;2022-07-12T05:44:37;5.45;;;3.03;;
67965;SDS011;54749;47.850;9.002;2022-07-12T05:47:03;6.97;;;2.80;;
67965;SDS011;54749;47.850;9.002;2022-07-12T05:49:30;5.57;;;2.60;;
67965;SDS011;54749;47.850;9.002;2022-07-12T05:51:57;5.60;;;2.45;;
67965;SDS011;54749;47.850;9.002;2022-07-12T05:54:42;4.38;;;2.10;;
67965;SDS011;54749;47.850;9.002;2022-07-12T05:57:09;4.40;;;2.45;;
67965;SDS011;54749;47.850;9.002;2022-07-12T05:59:37;4.40;;;2.00;;
67965;SDS011;54749;47.850;9.002;2022-07-12T06:02:04;5.00;;;2.20;;
67965;SDS011;54749;47.850;9.002;2022-07-12T06:04:31;6.28;;;2.35;;
67965;SDS011;54749;47.850;9.002;2022-07-12T06:06:58;6.60;;;3.13;;
67965;SDS011;54749;47.850;9.002;2022-07-12T06:09:25;6.15;;;3.15;;
67965;SDS011;54749;47.850;9.002;2022-07-12T06:11:52;10.20;;;3.13;;
67965;SDS011;54749;47.850;9.002;2022-07-12T06:14:18;6.17;;;2.43;;
67965;SDS011;54749;47.850;9.002;2022-07-12T06:16:45;6.47;;;2.47;;
67965;SDS011;54749;47.850;9.002;2022-07-12T06:19:12;6.05;;;2.50;;
67965;SDS011;54749;47.850;9.002;2022-07-12T06:21:39;5.68;;;2.65;;
67965;SDS011;54749;47.850;9.002;2022-07-12T06:24:06;8.38;;;2.63;;
67965;SDS011;54749;47.850;9.002;2022-07-12T06:26:32;6.77;;;3.03;;
67965;SDS011;54749;47.850;9.002;2022-07-12T06:28:59;5.10;;;2.40;;
67965;SDS011;54749;47.850;9.002;2022-07-12T06:31:26;5.10;;;2.20;;
67965;SDS011;54749;47.850;9.002;2022-07-12T06:33:59;5.82;;;2.90;;
67965;SDS011;54749;47.850;9.002;2022-07-12T06:36:26;5.05;;;2.60;;
67965;SDS011;54749;47.850;9.002;2022-07-12T06:38:53;7.10;;;2.90;;
67965;SDS011;54749;47.850;9.002;2022-07-12T06:41:19;5.50;;;2.58;;
67965;SDS011;54749;47.850;9.002;2022-07-12T06:43:46;6.30;;;2.90;;
67965;SDS011;54749;47.850;9.002;2022-07-12T06:46:13;7.47;;;3.17;;
67965;SDS011;54749;47.850;9.002;2022-07-12T06:48:40;4.90;;;2.30;;
67965;SDS011;54749;47.850;9.002;2022-07-12T06:51:07;5.83;;;2.20;;
67965;SDS011;54749;47.850;9.002;2022-07-12T06:53:34;5.72;;;3.00;;
67965;SDS011;54749;47.850;9.002;2022-07-12T06:56:00;4.97;;;2.60;;
67965;SDS011;54749;47.850;9.002;2022-07-12T06:58:27;4.95;;;2.13;;
67965;SDS011;54749;47.850;9.002;2022-07-12T07:00:55;5.50;;;3.00;;
67965;SDS011;54749;47.850;9.002;2022-07-12T07:03:21;4.73;;;2.37;;
67965;SDS011;54749;47.850;9.002;2022-07-12T07:05:48;4.57;;;2.20;;
67965;SDS011;54749;47.850;9.002;2022-07-12T07:08:15;4.55;;;2.10;;
67965;SDS011;54749;47.850;9.002;2022-07-12T07:10:42;4.40;;;2.00;;
67965;SDS011;54749;47.850;9.002;2022-07-12T07:13:09;4.43;;;2.15;;
67965;SDS011;54749;47.850;9.002;2022-07-12T07:15:40;4.00;;;2.17;;
67965;SDS011;54749;47.850;9.002;2022-07-12T07:18:07;5.38;;;2.33;;
67965;SDS011;54749;47.850;9.002;2022-07-12T07:20:34;4.80;;;1.80;;
67965;SDS011;54749;47.850;9.002;2022-07-12T07:23:01;4.78;;;2.00;;
67965;SDS011;54749;47.850;9.002;2022-07-12T07:25:28;4.15;;;2.00;;
67965;SDS011;54749;47.850;9.002;2022-07-12T07:27:55;4.63;;;2.47;;
67965;SDS011;54749;47.850;9.002;2022-07-12T07:30:22;5.88;;;2.05;;
67965;SDS011;54749;47.850;9.002;2022-07-12T07:33:07;5.05;;;2.00;;
67965;SDS011;54749;47.850;9.002;2022-07-12T07:35:34;4.53;;;2.22;;
67965;SDS011;54749;47.850;9.002;2022-07-12T07:38:01;4.05;;;2.00;;
67965;SDS011;54749;47.850;9.002;2022-07-12T07:40:27;4.70;;;1.90;;
67965;SDS011;54749;47.850;9.002;2022-07-12T07:42:54;3.50;;;1.80;;
67965;SDS011;54749;47.850;9.002;2022-07-12T07:45:22;4.25;;;2.05;;
67965;SDS011;54749;47.850;9.002;2022-07-12T07:47:49;3.78;;;1.70;;
67965;SDS011;54749;47.850;9.002;2022-07-12T07:50:36;4.95;;;1.98;;
67965;SDS011;54749;47.850;9.002;2022-07-12T07:53:03;5.90;;;1.80;;
67965;SDS011;54749;47.850;9.002;2022-07-12T07:55:31;4.38;;;2.00;;
67965;SDS011;54749;47.850;9.002;2022-07-12T07:57:58;4.70;;;1.80;;
67965;SDS011;54749;47.850;9.002;2022-07-12T08:00:26;4.45;;;1.95;;
67965;SDS011;54749;47.850;9.002;2022-07-12T08:02:54;4.38;;;1.90;;
67965;SDS011;54749;47.850;9.002;2022-07-12T08:05:22;5.53;;;1.80;;
67965;SDS011;54749;47.850;9.002;2022-07-12T08:07:54;4.40;;;1.80;;
67965;SDS011;54749;47.850;9.002;2022-07-12T08:10:21;6.55;;;1.70;;
67965;SDS011;54749;47.850;9.002;2022-07-12T08:12:48;3.80;;;1.70;;
67965;SDS011;54749;47.850;9.002;2022-07-12T08:15:15;6.88;;;2.00;;
67965;SDS011;54749;47.850;9.002;2022-07-12T08:17:42;4.77;;;1.70;;
67965;SDS011;54749;47.850;9.002;2022-07-12T08:20:18;3.85;;;1.70;;
67965;SDS011;54749;47.850;9.002;2022-07-12T08:23:05;5.22;;;1.92;;
67965;SDS011;54749;47.850;9.002;2022-07-12T08:25:32;3.50;;;1.67;;
67965;SDS011;54749;47.850;9.002;2022-07-12T08:27:59;3.55;;;1.60;;
67965;SDS011;54749;47.850;9.002;2022-07-12T08:30:26;3.93;;;1.67;;
67965;SDS011;54749;47.850;9.002;2022-07-12T08:32:53;5.03;;;1.80;;
67965;SDS011;54749;47.850;9.002;2022-07-12T08:35:21;5.13;;;1.83;;
67965;SDS011;54749;47.850;9.002;2022-07-12T08:37:48;4.90;;;1.50;;
67965;SDS011;54749;47.850;9.002;2022-07-12T08:40:15;3.42;;;1.60;;
67965;SDS011;54749;47.850;9.002;2022-07-12T08:42:43;3.87;;;1.67;;
67965;SDS011;54749;47.850;9.002;2022-07-12T08:45:10;3.72;;;1.70;;
67965;SDS011;54749;47.850;9.002;2022-07-12T08:47:37;4.45;;;1.80;;
67965;SDS011;54749;47.850;9.002;2022-07-12T08:50:19;3.38;;;1.75;;
67965;SDS011;54749;47.850;9.002;2022-07-12T08:52:53;3.75;;;1.60;;
67965;SDS011;54749;47.850;9.002;2022-07-12T08:55:22;3.97;;;1.67;;
67965;SDS011;54749;47.850;9.002;2022-07-12T08:57:51;5.07;;;1.75;;
67965;SDS011;54749;47.850;9.002;2022-07-12T09:00:21;3.70;;;1.75;;
67965;SDS011;54749;47.850;9.002;2022-07-12T09:02:50;4.18;;;1.67;;
67965;SDS011;54749;47.850;9.002;2022-07-12T09:05:21;4.88;;;1.70;;
67965;SDS011;54749;47.850;9.002;2022-07-12T09:07:49;3.40;;;1.60;;
67965;SDS011;54749;47.850;9.002;2022-07-12T09:10:17;3.45;;;1.50;;
67965;SDS011;54749;47.850;9.002;2022-07-12T09:12:45;5.03;;;1.50;;
67965;SDS011;54749;47.850;9.002;2022-07-12T09:15:14;5.68;;;1.40;;
67965;SDS011;54749;47.850;9.002;2022-07-12T09:18:02;3.55;;;1.80;;
67965;SDS011;54749;47.850;9.002;2022-07-12T09:20:40;4.43;;;1.73;;
67965;SDS011;54749;47.850;9.002;2022-07-12T09:23:11;3.33;;;1.40;;
67965;SDS011;54749;47.850;9.002;2022-07-12T09:25:38;3.30;;;1.60;;
67965;SDS011;54749;47.850;9.002;2022-07-12T09:28:10;3.72;;;1.40;;
67965;SDS011;54749;47.850;9.002;2022-07-12T09:30:46;3.97;;;1.35;;
67965;SDS011;54749;47.850;9.002;2022-07-12T09:33:17;4.00;;;1.60;;
67965;SDS011;54749;47.850;9.002;2022-07-12T09:36:03;5.60;;;1.60;;
67965;SDS011;54749;47.850;9.002;2022-07-12T09:38:37;4.68;;;1.67;;
67965;SDS011;54749;47.850;9.002;2022-07-12T09:41:05;3.63;;;1.70;;
67965;SDS011;54749;47.850;9.002;2022-07-12T09:43:34;4.65;;;1.75;;
67965;SDS011;54749;47.850;9.002;2022-07-12T09:46:01;4.27;;;1.67;;
67965;SDS011;54749;47.850;9.002;2022-07-12T09:48:29;4.32;;;1.70;;
67965;SDS011;54749;47.850;9.002;2022-07-12T09:50:56;7.05;;;1.80;;
67965;SDS011;54749;47.850;9.002;2022-07-12T09:53:28;4.57;;;1.77;;
67965;SDS011;54749;47.850;9.002;2022-07-12T09:56:05;4.90;;;1.83;;
67965;SDS011;54749;47.850;9.002;2022-07-12T10:01:15;9.82;;;1.88;;
67965;SDS011;54749;47.850;9.002;2022-07-12T10:03:48;4.90;;;1.92;;
67965;SDS011;54749;47.850;9.002;2022-07-12T10:06:22;3.28;;;1.50;;
67965;SDS011;54749;47.850;9.002;2022-07-12T10:09:00;3.72;;;1.40;;
67965;SDS011;54749;47.850;9.002;2022-07-12T10:11:27;5.27;;;1.67;;
67965;SDS011;54749;47.850;9.002;2022-07-12T10:14:14;3.53;;;1.52;;
67965;SDS011;54749;47.850;9.002;2022-07-12T10:16:42;6.90;;;1.70;;
67965;SDS011;54749;47.850;9.002;2022-07-12T10:19:27;3.50;;;1.60;;
67965;SDS011;54749;47.850;9.002;2022-07-12T10:21:57;3.35;;;1.60;;
67965;SDS011;54749;47.850;9.002;2022-07-12T10:27:00;6.18;;;1.92;;
67965;SDS011;54749;47.850;9.002;2022-07-12T10:29:48;5.95;;;2.20;;
67965;SDS011;54749;47.850;9.002;2022-07-12T10:32:21;4.32;;;1.90;;
67965;SDS011;54749;47.850;9.002;2022-07-12T10:35:00;3.30;;;1.50;;
67965;SDS011;54749;47.850;9.002;2022-07-12T10:37:34;3.87;;;1.50;;
67965;SDS011;54749;47.850;9.002;2022-07-12T10:40:11;6.43;;;1.50;;
67965;SDS011;54749;47.850;9.002;2022-07-12T10:45:32;3.78;;;1.40;;
67965;SDS011;54749;47.850;9.002;2022-07-12T10:48:04;3.72;;;1.40;;
67965;SDS011;54749;47.850;9.002;2022-07-12T10:56:07;3.50;;;1.70;;
67965;SDS011;54749;47.850;9.002;2022-07-12T10:58:37;8.80;;;1.52;;
67965;SDS011;54749;47.850;9.002;2022-07-12T11:01:15;4.47;;;1.80;;
67965;SDS011;54749;47.850;9.002;2022-07-12T11:04:04;3.73;;;1.90;;
67965;SDS011;54749;47.850;9.002;2022-07-12T11:06:34;4.20;;;1.70;;
67965;SDS011;54749;47.850;9.002;2022-07-12T11:09:04;4.53;;;1.60;;
67965;SDS011;54749;47.850;9.002;2022-07-12T11:11:33;9.45;;;1.80;;
67965;SDS011;54749;47.850;9.002;2022-07-12T11:14:01;4.10;;;1.80;;
67965;SDS011;54749;47.850;9.002;2022-07-12T11:16:29;4.93;;;1.80;;
67965;SDS011;54749;47.850;9.002;2022-07-12T11:18:57;6.70;;;2.10;;
67965;SDS011;54749;47.850;9.002;2022-07-12T11:21:25;3.50;;;1.73;;
67965;SDS011;54749;47.850;9.002;2022-07-12T11:23:52;4.32;;;1.58;;
67965;SDS011;54749;47.850;9.002;2022-07-12T11:26:19;4.97;;;1.90;;
67965;SDS011;54749;47.850;9.002;2022-07-12T11:28:46;5.13;;;1.80;;
67965;SDS011;54749;47.850;9.002;2022-07-12T11:31:16;4.90;;;1.70;;
67965;SDS011;54749;47.850;9.002;2022-07-12T11:33:48;5.15;;;1.60;;
67965;SDS011;54749;47.850;9.002;2022-07-12T11:36:17;4.20;;;1.80;;
67965;SDS011;54749;47.850;9.002;2022-07-12T11:38:45;3.63;;;1.80;;
67965;SDS011;54749;47.850;9.002;2022-07-12T11:41:13;4.30;;;1.50;;
67965;SDS011;54749;47.850;9.002;2022-07-12T11:43:42;3.70;;;1.70;;
67965;SDS011;54749;47.850;9.002;2022-07-12T11:46:09;4.45;;;1.75;;
67965;SDS011;54749;47.850;9.002;2022-07-12T11:48:37;4.80;;;1.63;;
67965;SDS011;54749;47.850;9.002;2022-07-12T11:51:05;5.30;;;1.60;;
67965;SDS011;54749;47.850;9.002;2022-07-12T11:53:35;3.27;;;1.60;;
67965;SDS011;54749;47.850;9.002;2022-07-12T11:56:04;4.35;;;1.58;;
67965;SDS011;54749;47.850;9.002;2022-07-12T11:58:32;4.53;;;1.80;;
67965;SDS011;54749;47.850;9.002;2022-07-12T12:01:01;4.47;;;1.73;;
67965;SDS011;54749;47.850;9.002;2022-07-12T12:03:28;4.70;;;1.95;;
67965;SDS011;54749;47.850;9.002;2022-07-12T12:05:55;4.90;;;1.90;;
67965;SDS011;54749;47.850;9.002;2022-07-12T12:08:23;3.53;;;1.70;;
67965;SDS011;54749;47.850;9.002;2022-07-12T12:13:23;4.45;;;1.70;;
67965;SDS011;54749;47.850;9.002;2022-07-12T12:15:53;3.78;;;1.52;;
67965;SDS011;54749;47.850;9.002;2022-07-12T12:18:34;5.83;;;2.00;;
67965;SDS011;54749;47.850;9.002;2022-07-12T12:21:02;4.57;;;2.28;;
67965;SDS011;54749;47.850;9.002;2022-07-12T12:23:31;5.65;;;2.10;;
67965;SDS011;54749;47.850;9.002;2022-07-12T12:31:13;4.93;;;1.50;;
67965;SDS011;54749;47.850;9.002;2022-07-12T12:33:43;3.92;;;1.70;;
67965;SDS011;54749;47.850;9.002;2022-07-12T12:36:21;5.32;;;1.80;;
67965;SDS011;54749;47.850;9.002;2022-07-12T12:38:49;3.80;;;1.90;;
67965;SDS011;54749;47.850;9.002;2022-07-12T12:41:18;3.33;;;1.50;;
67965;SDS011;54749;47.850;9.002;2022-07-12T12:44:05;3.10;;;1.40;;
67965;SDS011;54749;47.850;9.002;2022-07-12T12:49:12;4.50;;;2.00;;
67965;SDS011;54749;47.850;9.002;2022-07-12T12:51:55;3.70;;;1.60;;
67965;SDS011;54749;47.850;9.002;2022-07-12T12:54:33;4.13;;;1.88;;
67965;SDS011;54749;47.850;9.002;2022-07-12T12:57:05;3.50;;;1.30;;
67965;SDS011;54749;47.850;9.002;2022-07-12T12:59:34;4.00;;;1.63;;
67965;SDS011;54749;47.850;9.002;2022-07-12T13:02:02;3.53;;;1.50;;
67965;SDS011;54749;47.850;9.002;2022-07-12T13:04:32;3.47;;;1.40;;
67965;SDS011;54749;47.850;9.002;2022-07-12T13:07:00;3.42;;;1.45;;
67965;SDS011;54749;47.850;9.002;2022-07-12T13:09:37;3.40;;;1.50;;
67965;SDS011;54749;47.850;9.002;2022-07-12T13:12:04;3.92;;;1.52;;
67965;SDS011;54749;47.850;9.002;2022-07-12T13:14:31;6.07;;;1.63;;
67965;SDS011;54749;47.850;9.002;2022-07-12T13:16:59;4.63;;;1.58;;
67965;SDS011;54749;47.850;9.002;2022-07-12T13:19:26;4.35;;;1.60;;
67965;SDS011;54749;47.850;9.002;2022-07-12T13:21:53;3.47;;;1.40;;
67965;SDS011;54749;47.850;9.002;2022-07-12T13:24:20;3.45;;;1.60;;
67965;SDS011;54749;47.850;9.002;2022-07-12T13:26:47;3.33;;;1.70;;
67965;SDS011;54749;47.850;9.002;2022-07-12T13:29:14;4.28;;;1.58;;
67965;SDS011;54749;47.850;9.002;2022-07-12T13:31:41;6.05;;;1.50;;
67965;SDS011;54749;47.850;9.002;2022-07-12T13:34:08;3.40;;;1.60;;
67965;SDS011;54749;47.850;9.002;2022-07-12T13:36:35;5.72;;;1.70;;
67965;SDS011;54749;47.850;9.002;2022-07-12T13:39:02;5.97;;;1.50;;
67965;SDS011;54749;47.850;9.002;2022-07-12T13:41:49;3.40;;;1.40;;
67965;SDS011;54749;47.850;9.002;2022-07-12T13:44:16;5.07;;;1.52;;
67965;SDS011;54749;47.850;9.002;2022-07-12T13:46:48;4.40;;;1.50;;
67965;SDS011;54749;47.850;9.002;2022-07-12T13:49:16;3.97;;;1.70;;
67965;SDS011;54749;47.850;9.002;2022-07-12T13:51:42;3.78;;;1.92;;
67965;SDS011;54749;47.850;9.002;2022-07-12T13:54:10;4.05;;;1.80;;
67965;SDS011;54749;47.850;9.002;2022-07-12T13:56:36;3.83;;;1.67;;
67965;SDS011;54749;47.850;9.002;2022-07-12T13:59:03;4.70;;;1.70;;
67965;SDS011;54749;47.850;9.002;2022-07-12T14:01:31;4.25;;;1.40;;
67965;SDS011;54749;47.850;9.002;2022-07-12T14:03:58;2.97;;;1.23;;
67965;SDS011;54749;47.850;9.002;2022-07-12T14:06:25;3.80;;;1.52;;
67965;SDS011;54749;47.850;9.002;2022-07-12T14:08:52;3.13;;;1.23;;
67965;SDS011;54749;47.850;9.002;2022-07-12T14:11:20;3.67;;;1.50;;
67965;SDS011;54749;47.850;9.002;2022-07-12T14:13:47;3.53;;;1.60;;
67965;SDS011;54749;47.850;9.002;2022-07-12T14:16:14;4.55;;;1.80;;
67965;SDS011;54749;47.850;9.002;2022-07-12T14:18:41;3.30;;;1.27;;
67965;SDS011;54749;47.850;9.002;2022-07-12T14:21:08;3.20;;;1.33;;
67965;SDS011;54749;47.850;9.002;2022-07-12T14:23:36;4.40;;;1.37;;
67965;SDS011;54749;47.850;9.002;2022-07-12T14:26:03;3.20;;;1.40;;
67965;SDS011;54749;47.850;9.002;2022-07-12T14:28:31;3.22;;;1.52;;
67965;SDS011;54749;47.850;9.002;2022-07-12T14:30:58;3.95;;;1.40;;
67965;SDS011;54749;47.850;9.002;2022-07-12T14:33:25;3.20;;;1.40;;
67965;SDS011;54749;47.850;9.002;2022-07-12T14:35:52;5.00;;;1.47;;
67965;SDS011;54749;47.850;9.002;2022-07-12T14:38:19;5.10;;;1.65;;
67965;SDS011;54749;47.850;9.002;2022-07-12T14:40:46;3.30;;;1.50;;
67965;SDS011;54749;47.850;9.002;2022-07-12T14:43:12;5.22;;;1.73;;
67965;SDS011;54749;47.850;9.002;2022-07-12T14:45:39;3.80;;;1.30;;
67965;SDS011;54749;47.850;9.002;2022-07-12T14:48:09;4.17;;;1.40;;
67965;SDS011;54749;47.850;9.002;2022-07-12T14:50:36;3.28;;;1.38;;
67965;SDS011;54749;47.850;9.002;2022-07-12T14:53:04;4.43;;;1.48;;
67965;SDS011;54749;47.850;9.002;2022-07-12T14:55:31;3.25;;;1.30;;
67965;SDS011;54749;47.850;9.002;2022-07-12T14:57:57;4.25;;;1.42;;
67965;SDS011;54749;47.850;9.002;2022-07-12T15:00:24;4.33;;;1.40;;
67965;SDS011;54749;47.850;9.002;2022-07-12T15:02:51;3.80;;;1.20;;
67965;SDS011;54749;47.850;9.002;2022-07-12T15:05:25;3.90;;;1.48;;
67965;SDS011;54749;47.850;9.002;2022-07-12T15:07:53;3.47;;;1.60;;
67965;SDS011;54749;47.850;9.002;2022-07-12T15:10:20;3.10;;;1.45;;
67965;SDS011;54749;47.850;9.002;2022-07-12T15:12:47;3.37;;;1.40;;
67965;SDS011;54749;47.850;9.002;2022-07-12T15:15:14;4.93;;;1.40;;
67965;SDS011;54749;47.850;9.002;2022-07-12T15:17:46;3.92;;;1.20;;
67965;SDS011;54749;47.850;9.002;2022-07-12T15:20:14;3.55;;;1.58;;